sensor_id;sensor_type;location;lat;lon;timestamp;temperature;humidity
41924;DHT22;27613;48.116;11.656;2023-07-13T00:02:05;17.60;99.90
41924;DHT22;27613;48.116;11.656;2023-07-13T00:04:31;17.60;99.90
41924;DHT22;27613;48.116;11.656;2023-07-13T00:06:56;17.50;99.90
41924;DHT22;27613;48.116;11.656;2023-07-13T00:09:23;17.50;99.90
41924;DHT22;27613;48.116;11.656;2023-07-13T00:11:52;17.50;99.90
41924;DHT22;27613;48.116;11.656;2023-07-13T00:14:18;17.50;99.90
41924;DHT22;27613;48.116;11.656;2023-07-13T00:16:44;17.50;99.90
41924;DHT22;27613;48.116;11.656;2023-07-13T00:19:11;17.50;99.90
41924;DHT22;27613;48.116;11.656;2023-07-13T00:21:37;17.40;99.90
41924;DHT22;27613;48.116;11.656;2023-07-13T00:24:03;17.50;99.90
41924;DHT22;27613;48.116;11.656;2023-07-13T00:26:29;17.50;99.90
41924;DHT22;27613;48.116;11.656;2023-07-13T00:28:54;17.50;99.90
41924;DHT22;27613;48.116;11.656;2023-07-13T00:31:20;17.50;99.90
41924;DHT22;27613;48.116;11.656;2023-07-13T00:33:45;17.50;99.90
41924;DHT22;27613;48.116;11.656;2023-07-13T00:36:12;17.40;99.90
41924;DHT22;27613;48.116;11.656;2023-07-13T00:38:37;17.50;99.90
41924;DHT22;27613;48.116;11.656;2023-07-13T00:41:04;17.50;99.90
41924;DHT22;27613;48.116;11.656;2023-07-13T00:43:29;17.50;99.90
41924;DHT22;27613;48.116;11.656;2023-07-13T00:48:32;17.40;99.90
41924;DHT22;27613;48.116;11.656;2023-07-13T00:51:00;17.50;99.90
41924;DHT22;27613;48.116;11.656;2023-07-13T00:53:27;17.50;99.90
41924;DHT22;27613;48.116;11.656;2023-07-13T00:55:55;17.40;99.90
41924;DHT22;27613;48.116;11.656;2023-07-13T00:58:22;17.50;99.90
41924;DHT22;27613;48.116;11.656;2023-07-13T01:00:48;17.40;99.90
41924;DHT22;27613;48.116;11.656;2023-07-13T01:03:15;17.50;99.90
41924;DHT22;27613;48.116;11.656;2023-07-13T01:05:40;17.50;99.90
41924;DHT22;27613;48.116;11.656;2023-07-13T01:08:06;17.50;99.90
41924;DHT22;27613;48.116;11.656;2023-07-13T01:10:32;17.40;99.90
41924;DHT22;27613;48.116;11.656;2023-07-13T01:13:06;17.50;99.90
41924;DHT22;27613;48.116;11.656;2023-07-13T01:15:46;17.40;99.90
41924;DHT22;27613;48.116;11.656;2023-07-13T01:18:18;17.50;99.90
41924;DHT22;27613;48.116;11.656;2023-07-13T01:21:03;17.40;99.90
41924;DHT22;27613;48.116;11.656;2023-07-13T01:23:30;17.40;99.90
41924;DHT22;27613;48.116;11.656;2023-07-13T01:25:57;17.40;99.90
41924;DHT22;27613;48.116;11.656;2023-07-13T01:28:25;17.30;99.90
41924;DHT22;27613;48.116;11.656;2023-07-13T01:30:53;17.30;99.90
41924;DHT22;27613;48.116;11.656;2023-07-13T01:33:19;17.30;99.90
41924;DHT22;27613;48.116;11.656;2023-07-13T01:35:46;17.30;99.90
41924;DHT22;27613;48.116;11.656;2023-07-13T01:38:14;17.30;99.90
41924;DHT22;27613;48.116;11.656;2023-07-13T01:40:40;17.30;99.90
41924;DHT22;27613;48.116;11.656;2023-07-13T01:43:05;17.30;99.90
41924;DHT22;27613;48.116;11.656;2023-07-13T01:45:31;17.30;99.90
41924;DHT22;27613;48.116;11.656;2023-07-13T01:47:56;17.30;99.90
41924;DHT22;27613;48.116;11.656;2023-07-13T01:50:23;17.30;99.90
41924;DHT22;27613;48.116;11.656;2023-07-13T01:52:49;17.30;99.90
41924;DHT22;27613;48.116;11.656;2023-07-13T01:55:14;17.30;99.90
41924;DHT22;27613;48.116;11.656;2023-07-13T01:57:40;17.30;99.90
41924;DHT22;27613;48.116;11.656;2023-07-13T02:00:08;17.30;99.90
41924;DHT22;27613;48.116;11.656;2023-07-13T02:02:34;17.30;99.90
41924;DHT22;27613;48.116;11.656;2023-07-13T02:05:00;17.30;99.90
41924;DHT22;27613;48.116;11.656;2023-07-13T02:07:25;17.30;99.90
41924;DHT22;27613;48.116;11.656;2023-07-13T02:09:51;17.30;99.90
41924;DHT22;27613;48.116;11.656;2023-07-13T02:12:16;17.30;99.90
41924;DHT22;27613;48.116;11.656;2023-07-13T02:14:42;17.40;99.90
41924;DHT22;27613;48.116;11.656;2023-07-13T02:17:09;17.40;99.90
41924;DHT22;27613;48.116;11.656;2023-07-13T02:19:34;17.30;99.90
41924;DHT22;27613;48.116;11.656;2023-07-13T02:22:00;17.20;99.90
41924;DHT22;27613;48.116;11.656;2023-07-13T02:24:25;17.20;99.90
41924;DHT22;27613;48.116;11.656;2023-07-13T02:26:52;17.20;99.90
41924;DHT22;27613;48.116;11.656;2023-07-13T02:29:17;17.30;99.90
41924;DHT22;27613;48.116;11.656;2023-07-13T02:31:43;17.20;99.90
41924;DHT22;27613;48.116;11.656;2023-07-13T02:34:08;17.20;99.90
41924;DHT22;27613;48.116;11.656;2023-07-13T02:36:34;17.30;99.90
41924;DHT22;27613;48.116;11.656;2023-07-13T02:39:02;17.20;99.90
41924;DHT22;27613;48.116;11.656;2023-07-13T02:41:28;17.30;99.90
41924;DHT22;27613;48.116;11.656;2023-07-13T02:43:54;17.30;99.90
41924;DHT22;27613;48.116;11.656;2023-07-13T02:46:28;17.30;99.90
41924;DHT22;27613;48.116;11.656;2023-07-13T02:48:54;17.30;99.90
41924;DHT22;27613;48.116;11.656;2023-07-13T02:51:19;17.30;99.90
41924;DHT22;27613;48.116;11.656;2023-07-13T02:53:45;17.30;99.90
41924;DHT22;27613;48.116;11.656;2023-07-13T02:56:10;17.40;99.90
41924;DHT22;27613;48.116;11.656;2023-07-13T02:58:36;17.40;99.90
41924;DHT22;27613;48.116;11.656;2023-07-13T03:01:07;17.40;99.90
41924;DHT22;27613;48.116;11.656;2023-07-13T03:03:33;17.30;99.90
41924;DHT22;27613;48.116;11.656;2023-07-13T03:06:00;17.30;99.90
41924;DHT22;27613;48.116;11.656;2023-07-13T03:08:27;17.30;99.90
41924;DHT22;27613;48.116;11.656;2023-07-13T03:11:00;17.30;99.90
41924;DHT22;27613;48.116;11.656;2023-07-13T03:13:26;17.30;99.90
41924;DHT22;27613;48.116;11.656;2023-07-13T03:15:52;17.20;99.90
41924;DHT22;27613;48.116;11.656;2023-07-13T03:18:17;17.10;99.90
41924;DHT22;27613;48.116;11.656;2023-07-13T03:20:43;17.00;99.90
41924;DHT22;27613;48.116;11.656;2023-07-13T03:23:09;16.70;99.90
41924;DHT22;27613;48.116;11.656;2023-07-13T03:25:34;16.60;99.90
41924;DHT22;27613;48.116;11.656;2023-07-13T03:28:00;16.60;99.90
41924;DHT22;27613;48.116;11.656;2023-07-13T03:30:25;16.50;99.90
41924;DHT22;27613;48.116;11.656;2023-07-13T03:32:51;16.50;99.90
41924;DHT22;27613;48.116;11.656;2023-07-13T03:35:17;16.40;99.90
41924;DHT22;27613;48.116;11.656;2023-07-13T03:37:42;16.40;99.90
41924;DHT22;27613;48.116;11.656;2023-07-13T03:40:09;16.30;99.90
41924;DHT22;27613;48.116;11.656;2023-07-13T03:42:35;16.40;99.90
41924;DHT22;27613;48.116;11.656;2023-07-13T03:45:01;16.40;99.90
41924;DHT22;27613;48.116;11.656;2023-07-13T03:47:26;16.40;99.90
41924;DHT22;27613;48.116;11.656;2023-07-13T03:49:52;16.30;99.90
41924;DHT22;27613;48.116;11.656;2023-07-13T03:52:18;16.30;99.90
41924;DHT22;27613;48.116;11.656;2023-07-13T03:54:44;16.10;99.90
41924;DHT22;27613;48.116;11.656;2023-07-13T03:57:10;16.00;99.90
41924;DHT22;27613;48.116;11.656;2023-07-13T03:59:36;16.10;99.90
41924;DHT22;27613;48.116;11.656;2023-07-13T04:02:02;16.10;99.90
41924;DHT22;27613;48.116;11.656;2023-07-13T04:04:29;16.20;99.90
41924;DHT22;27613;48.116;11.656;2023-07-13T04:06:56;16.10;99.90
41924;DHT22;27613;48.116;11.656;2023-07-13T04:09:23;16.10;99.90
41924;DHT22;27613;48.116;11.656;2023-07-13T04:11:49;16.20;99.90
41924;DHT22;27613;48.116;11.656;2023-07-13T04:14:15;16.10;99.90
41924;DHT22;27613;48.116;11.656;2023-07-13T04:16:41;16.10;99.90
41924;DHT22;27613;48.116;11.656;2023-07-13T04:19:07;16.10;99.90
41924;DHT22;27613;48.116;11.656;2023-07-13T04:21:35;16.10;99.90
41924;DHT22;27613;48.116;11.656;2023-07-13T04:24:01;16.10;99.90
41924;DHT22;27613;48.116;11.656;2023-07-13T04:26:28;16.20;99.90
41924;DHT22;27613;48.116;11.656;2023-07-13T04:28:53;16.10;99.90
41924;DHT22;27613;48.116;11.656;2023-07-13T04:31:20;16.10;99.90
41924;DHT22;27613;48.116;11.656;2023-07-13T04:33:45;16.10;99.90
41924;DHT22;27613;48.116;11.656;2023-07-13T04:36:11;16.10;99.90
41924;DHT22;27613;48.116;11.656;2023-07-13T04:38:37;16.20;99.90
41924;DHT22;27613;48.116;11.656;2023-07-13T04:41:04;16.20;99.90
41924;DHT22;27613;48.116;11.656;2023-07-13T04:43:32;16.20;99.90
41924;DHT22;27613;48.116;11.656;2023-07-13T04:46:06;16.30;99.90
41924;DHT22;27613;48.116;11.656;2023-07-13T04:48:32;16.20;99.90
41924;DHT22;27613;48.116;11.656;2023-07-13T04:50:58;16.20;99.90
41924;DHT22;27613;48.116;11.656;2023-07-13T04:53:24;16.20;99.90
41924;DHT22;27613;48.116;11.656;2023-07-13T04:55:50;16.20;99.90
41924;DHT22;27613;48.116;11.656;2023-07-13T04:58:16;16.20;99.90
41924;DHT22;27613;48.116;11.656;2023-07-13T05:00:41;16.20;99.90
41924;DHT22;27613;48.116;11.656;2023-07-13T05:03:07;16.20;99.90
41924;DHT22;27613;48.116;11.656;2023-07-13T05:05:32;16.20;99.90
41924;DHT22;27613;48.116;11.656;2023-07-13T05:07:59;16.20;99.90
41924;DHT22;27613;48.116;11.656;2023-07-13T05:10:25;16.20;99.90
41924;DHT22;27613;48.116;11.656;2023-07-13T05:12:50;16.30;99.90
41924;DHT22;27613;48.116;11.656;2023-07-13T05:15:16;16.20;99.90
41924;DHT22;27613;48.116;11.656;2023-07-13T05:17:46;16.20;99.90
41924;DHT22;27613;48.116;11.656;2023-07-13T05:20:12;16.20;99.90
41924;DHT22;27613;48.116;11.656;2023-07-13T05:22:37;16.30;99.90
41924;DHT22;27613;48.116;11.656;2023-07-13T05:25:05;16.30;99.90
41924;DHT22;27613;48.116;11.656;2023-07-13T05:27:31;16.40;99.90
41924;DHT22;27613;48.116;11.656;2023-07-13T05:29:56;16.40;99.90
41924;DHT22;27613;48.116;11.656;2023-07-13T05:32:22;16.40;99.90
41924;DHT22;27613;48.116;11.656;2023-07-13T05:34:47;16.30;99.90
41924;DHT22;27613;48.116;11.656;2023-07-13T05:37:13;16.40;99.90
41924;DHT22;27613;48.116;11.656;2023-07-13T05:39:38;16.40;99.90
41924;DHT22;27613;48.116;11.656;2023-07-13T05:42:05;16.40;99.90
41924;DHT22;27613;48.116;11.656;2023-07-13T05:44:30;16.40;99.90
41924;DHT22;27613;48.116;11.656;2023-07-13T05:46:56;16.50;99.90
41924;DHT22;27613;48.116;11.656;2023-07-13T05:49:22;16.50;99.90
41924;DHT22;27613;48.116;11.656;2023-07-13T05:51:47;16.60;99.90
41924;DHT22;27613;48.116;11.656;2023-07-13T05:54:13;16.70;99.90
41924;DHT22;27613;48.116;11.656;2023-07-13T05:56:38;16.80;99.90
41924;DHT22;27613;48.116;11.656;2023-07-13T05:59:04;16.90;99.90
41924;DHT22;27613;48.116;11.656;2023-07-13T06:01:30;17.00;99.90
41924;DHT22;27613;48.116;11.656;2023-07-13T06:03:56;17.10;99.90
41924;DHT22;27613;48.116;11.656;2023-07-13T06:06:22;17.30;99.90
41924;DHT22;27613;48.116;11.656;2023-07-13T06:08:47;17.40;99.90
41924;DHT22;27613;48.116;11.656;2023-07-13T06:11:19;17.50;99.90
41924;DHT22;27613;48.116;11.656;2023-07-13T06:13:46;17.50;99.90
41924;DHT22;27613;48.116;11.656;2023-07-13T06:16:12;17.60;99.90
41924;DHT22;27613;48.116;11.656;2023-07-13T06:18:39;17.60;99.90
41924;DHT22;27613;48.116;11.656;2023-07-13T06:21:09;17.60;99.90
41924;DHT22;27613;48.116;11.656;2023-07-13T06:23:35;17.60;99.90
41924;DHT22;27613;48.116;11.656;2023-07-13T06:26:01;17.60;99.90
41924;DHT22;27613;48.116;11.656;2023-07-13T06:28:27;17.60;99.90
41924;DHT22;27613;48.116;11.656;2023-07-13T06:30:53;17.70;99.90
41924;DHT22;27613;48.116;11.656;2023-07-13T06:33:19;17.70;99.90
41924;DHT22;27613;48.116;11.656;2023-07-13T06:35:44;17.90;99.90
41924;DHT22;27613;48.116;11.656;2023-07-13T06:38:10;17.90;99.90
41924;DHT22;27613;48.116;11.656;2023-07-13T06:40:35;17.90;99.90
41924;DHT22;27613;48.116;11.656;2023-07-13T06:43:00;17.80;99.90
41924;DHT22;27613;48.116;11.656;2023-07-13T06:45:26;17.90;99.90
41924;DHT22;27613;48.116;11.656;2023-07-13T06:47:52;17.70;99.90
41924;DHT22;27613;48.116;11.656;2023-07-13T06:50:17;17.60;99.90
41924;DHT22;27613;48.116;11.656;2023-07-13T06:52:43;17.80;99.90
41924;DHT22;27613;48.116;11.656;2023-07-13T06:55:08;17.80;99.90
41924;DHT22;27613;48.116;11.656;2023-07-13T06:57:34;17.90;99.90
41924;DHT22;27613;48.116;11.656;2023-07-13T06:59:59;18.10;99.90
41924;DHT22;27613;48.116;11.656;2023-07-13T07:02:25;18.20;99.90
41924;DHT22;27613;48.116;11.656;2023-07-13T07:04:51;18.20;99.90
41924;DHT22;27613;48.116;11.656;2023-07-13T07:07:16;18.10;99.90
41924;DHT22;27613;48.116;11.656;2023-07-13T07:09:42;18.20;99.90
41924;DHT22;27613;48.116;11.656;2023-07-13T07:12:07;18.20;99.90
41924;DHT22;27613;48.116;11.656;2023-07-13T07:14:33;18.30;99.90
41924;DHT22;27613;48.116;11.656;2023-07-13T07:17:00;18.40;99.90
41924;DHT22;27613;48.116;11.656;2023-07-13T07:19:25;18.60;99.90
41924;DHT22;27613;48.116;11.656;2023-07-13T07:21:51;18.60;99.90
41924;DHT22;27613;48.116;11.656;2023-07-13T07:24:16;18.60;99.90
41924;DHT22;27613;48.116;11.656;2023-07-13T07:26:42;18.80;99.90
41924;DHT22;27613;48.116;11.656;2023-07-13T07:29:07;18.90;99.90
41924;DHT22;27613;48.116;11.656;2023-07-13T07:31:33;19.00;99.90
41924;DHT22;27613;48.116;11.656;2023-07-13T07:33:58;18.80;99.90
41924;DHT22;27613;48.116;11.656;2023-07-13T07:36:24;18.80;99.90
41924;DHT22;27613;48.116;11.656;2023-07-13T07:38:49;18.90;99.90
41924;DHT22;27613;48.116;11.656;2023-07-13T07:41:15;18.90;99.90
41924;DHT22;27613;48.116;11.656;2023-07-13T07:43:41;18.90;99.90
41924;DHT22;27613;48.116;11.656;2023-07-13T07:46:06;18.90;99.90
41924;DHT22;27613;48.116;11.656;2023-07-13T07:48:32;18.90;99.90
41924;DHT22;27613;48.116;11.656;2023-07-13T07:50:57;18.90;99.90
41924;DHT22;27613;48.116;11.656;2023-07-13T07:53:23;18.90;99.90
41924;DHT22;27613;48.116;11.656;2023-07-13T07:55:49;18.70;99.90
41924;DHT22;27613;48.116;11.656;2023-07-13T07:58:15;18.80;99.90
41924;DHT22;27613;48.116;11.656;2023-07-13T08:00:40;18.80;99.90
41924;DHT22;27613;48.116;11.656;2023-07-13T08:03:06;18.80;99.90
41924;DHT22;27613;48.116;11.656;2023-07-13T08:05:31;18.80;99.90
41924;DHT22;27613;48.116;11.656;2023-07-13T08:07:57;18.60;99.90
41924;DHT22;27613;48.116;11.656;2023-07-13T08:10:22;18.70;99.90
41924;DHT22;27613;48.116;11.656;2023-07-13T08:12:48;18.40;99.90
41924;DHT22;27613;48.116;11.656;2023-07-13T08:15:16;18.40;99.90
41924;DHT22;27613;48.116;11.656;2023-07-13T08:17:42;18.50;99.90
41924;DHT22;27613;48.116;11.656;2023-07-13T08:20:08;18.50;99.90
41924;DHT22;27613;48.116;11.656;2023-07-13T08:22:35;18.50;99.90
41924;DHT22;27613;48.116;11.656;2023-07-13T08:25:01;18.40;99.90
41924;DHT22;27613;48.116;11.656;2023-07-13T08:27:28;18.40;99.90
41924;DHT22;27613;48.116;11.656;2023-07-13T08:29:54;18.30;99.90
41924;DHT22;27613;48.116;11.656;2023-07-13T08:32:21;18.30;99.90
41924;DHT22;27613;48.116;11.656;2023-07-13T08:34:47;18.30;99.90
41924;DHT22;27613;48.116;11.656;2023-07-13T08:37:14;18.20;99.90
41924;DHT22;27613;48.116;11.656;2023-07-13T08:39:40;18.30;99.90
41924;DHT22;27613;48.116;11.656;2023-07-13T08:45:07;18.40;99.90
41924;DHT22;27613;48.116;11.656;2023-07-13T08:47:38;18.40;99.90
41924;DHT22;27613;48.116;11.656;2023-07-13T08:50:05;18.40;99.90
41924;DHT22;27613;48.116;11.656;2023-07-13T08:52:39;18.10;99.90
41924;DHT22;27613;48.116;11.656;2023-07-13T08:55:24;18.20;99.90
41924;DHT22;27613;48.116;11.656;2023-07-13T08:58:09;18.30;99.90
41924;DHT22;27613;48.116;11.656;2023-07-13T09:03:41;18.40;99.90
41924;DHT22;27613;48.116;11.656;2023-07-13T09:06:08;18.60;99.90
41924;DHT22;27613;48.116;11.656;2023-07-13T09:14:37;18.80;99.90
41924;DHT22;27613;48.116;11.656;2023-07-13T09:17:35;18.90;99.90
41924;DHT22;27613;48.116;11.656;2023-07-13T09:20:10;19.00;99.90
41924;DHT22;27613;48.116;11.656;2023-07-13T09:22:40;19.10;99.90
41924;DHT22;27613;48.116;11.656;2023-07-13T09:25:32;19.20;99.90
41924;DHT22;27613;48.116;11.656;2023-07-13T09:28:13;19.40;97.80
41924;DHT22;27613;48.116;11.656;2023-07-13T09:30:56;19.50;99.90
41924;DHT22;27613;48.116;11.656;2023-07-13T09:33:24;19.70;97.90
41924;DHT22;27613;48.116;11.656;2023-07-13T09:35:50;19.70;95.10
41924;DHT22;27613;48.116;11.656;2023-07-13T09:38:18;19.70;94.30
41924;DHT22;27613;48.116;11.656;2023-07-13T09:41:23;19.80;96.20
41924;DHT22;27613;48.116;11.656;2023-07-13T09:44:37;19.60;91.50
41924;DHT22;27613;48.116;11.656;2023-07-13T09:47:03;20.00;91.50
41924;DHT22;27613;48.116;11.656;2023-07-13T09:49:38;20.10;90.30
41924;DHT22;27613;48.116;11.656;2023-07-13T09:52:11;19.90;99.90
41924;DHT22;27613;48.116;11.656;2023-07-13T09:54:37;19.80;99.90
41924;DHT22;27613;48.116;11.656;2023-07-13T09:57:14;19.80;99.90
41924;DHT22;27613;48.116;11.656;2023-07-13T09:59:44;19.80;99.90
41924;DHT22;27613;48.116;11.656;2023-07-13T10:02:32;19.60;99.90
41924;DHT22;27613;48.116;11.656;2023-07-13T10:05:07;19.70;99.90
41924;DHT22;27613;48.116;11.656;2023-07-13T10:07:39;19.60;99.90
41924;DHT22;27613;48.116;11.656;2023-07-13T10:10:21;19.80;99.90
41924;DHT22;27613;48.116;11.656;2023-07-13T10:12:47;19.80;99.90
41924;DHT22;27613;48.116;11.656;2023-07-13T10:15:19;20.60;99.90
41924;DHT22;27613;48.116;11.656;2023-07-13T10:17:46;20.00;99.90
41924;DHT22;27613;48.116;11.656;2023-07-13T10:20:11;20.00;99.90
41924;DHT22;27613;48.116;11.656;2023-07-13T10:22:53;20.10;99.90
41924;DHT22;27613;48.116;11.656;2023-07-13T10:25:26;20.70;99.90
41924;DHT22;27613;48.116;11.656;2023-07-13T10:27:56;22.30;99.90
41924;DHT22;27613;48.116;11.656;2023-07-13T10:30:35;21.70;98.50
41924;DHT22;27613;48.116;11.656;2023-07-13T10:33:10;22.50;95.30
41924;DHT22;27613;48.116;11.656;2023-07-13T10:35:37;24.20;91.30
41924;DHT22;27613;48.116;11.656;2023-07-13T10:38:11;24.70;81.20
41924;DHT22;27613;48.116;11.656;2023-07-13T10:41:09;23.70;85.70
41924;DHT22;27613;48.116;11.656;2023-07-13T10:43:39;23.90;89.20
41924;DHT22;27613;48.116;11.656;2023-07-13T10:46:08;24.20;72.60
41924;DHT22;27613;48.116;11.656;2023-07-13T10:48:36;25.30;61.90
41924;DHT22;27613;48.116;11.656;2023-07-13T10:51:04;25.30;62.90
41924;DHT22;27613;48.116;11.656;2023-07-13T10:53:34;26.10;59.00
41924;DHT22;27613;48.116;11.656;2023-07-13T10:56:01;27.20;61.40
41924;DHT22;27613;48.116;11.656;2023-07-13T10:58:41;26.20;64.20
41924;DHT22;27613;48.116;11.656;2023-07-13T11:01:08;28.40;62.90
41924;DHT22;27613;48.116;11.656;2023-07-13T11:03:49;29.10;62.90
41924;DHT22;27613;48.116;11.656;2023-07-13T11:06:37;27.20;65.00
41924;DHT22;27613;48.116;11.656;2023-07-13T11:09:39;27.40;63.30
41924;DHT22;27613;48.116;11.656;2023-07-13T11:12:08;28.60;58.00
41924;DHT22;27613;48.116;11.656;2023-07-13T11:14:42;28.00;49.20
41924;DHT22;27613;48.116;11.656;2023-07-13T11:19:53;27.10;55.30
41924;DHT22;27613;48.116;11.656;2023-07-13T11:22:24;27.30;56.10
41924;DHT22;27613;48.116;11.656;2023-07-13T11:30:25;28.40;52.80
41924;DHT22;27613;48.116;11.656;2023-07-13T11:35:33;28.00;53.30
41924;DHT22;27613;48.116;11.656;2023-07-13T11:38:01;28.10;52.80
41924;DHT22;27613;48.116;11.656;2023-07-13T11:40:27;27.50;58.40
41924;DHT22;27613;48.116;11.656;2023-07-13T11:43:01;25.20;59.80
41924;DHT22;27613;48.116;11.656;2023-07-13T11:45:27;25.40;59.70
41924;DHT22;27613;48.116;11.656;2023-07-13T11:47:54;26.60;59.30
41924;DHT22;27613;48.116;11.656;2023-07-13T11:50:23;27.00;56.70
41924;DHT22;27613;48.116;11.656;2023-07-13T11:52:51;28.10;55.40
41924;DHT22;27613;48.116;11.656;2023-07-13T11:55:20;27.80;56.50
41924;DHT22;27613;48.116;11.656;2023-07-13T11:58:07;29.60;54.30
41924;DHT22;27613;48.116;11.656;2023-07-13T12:00:34;28.90;52.80
41924;DHT22;27613;48.116;11.656;2023-07-13T12:03:02;27.10;55.30
41924;DHT22;27613;48.116;11.656;2023-07-13T12:05:30;26.50;55.90
41924;DHT22;27613;48.116;11.656;2023-07-13T12:07:57;26.80;57.60
41924;DHT22;27613;48.116;11.656;2023-07-13T12:10:26;27.50;56.40
41924;DHT22;27613;48.116;11.656;2023-07-13T12:13:05;26.70;58.10
41924;DHT22;27613;48.116;11.656;2023-07-13T12:15:44;27.90;56.50
41924;DHT22;27613;48.116;11.656;2023-07-13T12:18:23;27.40;57.20
41924;DHT22;27613;48.116;11.656;2023-07-13T12:20:57;27.00;57.90
41924;DHT22;27613;48.116;11.656;2023-07-13T12:23:34;25.70;58.70
41924;DHT22;27613;48.116;11.656;2023-07-13T12:26:04;26.40;59.60
41924;DHT22;27613;48.116;11.656;2023-07-13T12:28:36;27.10;59.70
41924;DHT22;27613;48.116;11.656;2023-07-13T12:31:05;28.00;58.80
41924;DHT22;27613;48.116;11.656;2023-07-13T12:33:31;28.10;55.70
41924;DHT22;27613;48.116;11.656;2023-07-13T12:36:00;28.20;55.00
41924;DHT22;27613;48.116;11.656;2023-07-13T12:38:27;27.00;55.20
41924;DHT22;27613;48.116;11.656;2023-07-13T12:40:53;27.10;59.70
41924;DHT22;27613;48.116;11.656;2023-07-13T12:43:20;26.70;58.20
41924;DHT22;27613;48.116;11.656;2023-07-13T12:46:19;27.30;56.70
41924;DHT22;27613;48.116;11.656;2023-07-13T12:48:43;25.80;57.80
41924;DHT22;27613;48.116;11.656;2023-07-13T12:51:13;25.10;59.90
41924;DHT22;27613;48.116;11.656;2023-07-13T12:53:48;25.20;59.40
41924;DHT22;27613;48.116;11.656;2023-07-13T12:56:21;26.20;59.00
41924;DHT22;27613;48.116;11.656;2023-07-13T12:58:48;25.90;57.00
41924;DHT22;27613;48.116;11.656;2023-07-13T13:01:25;26.00;58.70
41924;DHT22;27613;48.116;11.656;2023-07-13T13:03:53;24.80;59.30
41924;DHT22;27613;48.116;11.656;2023-07-13T13:08:55;24.80;61.60
41924;DHT22;27613;48.116;11.656;2023-07-13T13:11:23;25.40;61.80
41924;DHT22;27613;48.116;11.656;2023-07-13T13:13:49;27.00;58.40
41924;DHT22;27613;48.116;11.656;2023-07-13T13:18:43;28.90;54.20
41924;DHT22;27613;48.116;11.656;2023-07-13T13:21:10;29.00;53.70
41924;DHT22;27613;48.116;11.656;2023-07-13T13:23:36;28.90;53.90
41924;DHT22;27613;48.116;11.656;2023-07-13T13:26:02;29.90;53.00
41924;DHT22;27613;48.116;11.656;2023-07-13T13:28:29;29.30;56.00
41924;DHT22;27613;48.116;11.656;2023-07-13T13:30:54;28.10;54.10
41924;DHT22;27613;48.116;11.656;2023-07-13T13:33:21;28.00;56.40
41924;DHT22;27613;48.116;11.656;2023-07-13T13:35:47;28.50;55.70
41924;DHT22;27613;48.116;11.656;2023-07-13T13:38:14;28.00;54.70
41924;DHT22;27613;48.116;11.656;2023-07-13T13:40:42;28.50;54.90
41924;DHT22;27613;48.116;11.656;2023-07-13T13:43:21;29.10;54.10
41924;DHT22;27613;48.116;11.656;2023-07-13T13:45:51;29.40;53.70
41924;DHT22;27613;48.116;11.656;2023-07-13T13:48:20;28.70;52.80
41924;DHT22;27613;48.116;11.656;2023-07-13T13:50:48;28.90;54.10
41924;DHT22;27613;48.116;11.656;2023-07-13T13:53:14;28.30;55.10
41924;DHT22;27613;48.116;11.656;2023-07-13T13:55:40;29.20;52.20
41924;DHT22;27613;48.116;11.656;2023-07-13T13:58:08;29.40;52.10
41924;DHT22;27613;48.116;11.656;2023-07-13T14:00:34;28.00;53.60
41924;DHT22;27613;48.116;11.656;2023-07-13T14:02:59;27.00;54.70
41924;DHT22;27613;48.116;11.656;2023-07-13T14:05:25;26.70;55.60
41924;DHT22;27613;48.116;11.656;2023-07-13T14:07:55;26.70;55.20
41924;DHT22;27613;48.116;11.656;2023-07-13T14:10:22;26.70;55.00
41924;DHT22;27613;48.116;11.656;2023-07-13T14:12:51;27.00;55.50
41924;DHT22;27613;48.116;11.656;2023-07-13T14:17:46;30.10;50.50
41924;DHT22;27613;48.116;11.656;2023-07-13T14:20:15;31.20;49.30
41924;DHT22;27613;48.116;11.656;2023-07-13T14:22:41;31.00;49.30
41924;DHT22;27613;48.116;11.656;2023-07-13T14:25:11;31.30;47.70
41924;DHT22;27613;48.116;11.656;2023-07-13T14:27:37;31.20;49.00
41924;DHT22;27613;48.116;11.656;2023-07-13T14:30:04;31.10;49.70
41924;DHT22;27613;48.116;11.656;2023-07-13T14:32:30;29.80;49.50
41924;DHT22;27613;48.116;11.656;2023-07-13T14:34:56;30.20;49.90
41924;DHT22;27613;48.116;11.656;2023-07-13T14:37:23;29.40;50.90
41924;DHT22;27613;48.116;11.656;2023-07-13T14:39:51;29.20;52.20
41924;DHT22;27613;48.116;11.656;2023-07-13T14:42:17;29.40;52.40
41924;DHT22;27613;48.116;11.656;2023-07-13T14:44:42;29.60;49.90
41924;DHT22;27613;48.116;11.656;2023-07-13T14:47:08;30.90;48.90
41924;DHT22;27613;48.116;11.656;2023-07-13T14:49:35;30.10;49.50
41924;DHT22;27613;48.116;11.656;2023-07-13T14:52:08;29.10;50.40
41924;DHT22;27613;48.116;11.656;2023-07-13T14:54:36;27.90;51.70
41924;DHT22;27613;48.116;11.656;2023-07-13T14:57:09;27.90;52.10
41924;DHT22;27613;48.116;11.656;2023-07-13T14:59:34;28.50;51.80
41924;DHT22;27613;48.116;11.656;2023-07-13T15:02:00;29.60;51.00
41924;DHT22;27613;48.116;11.656;2023-07-13T15:04:26;29.10;51.00
41924;DHT22;27613;48.116;11.656;2023-07-13T15:07:00;27.90;53.10
41924;DHT22;27613;48.116;11.656;2023-07-13T15:09:28;28.90;51.00
41924;DHT22;27613;48.116;11.656;2023-07-13T15:11:57;28.90;51.40
41924;DHT22;27613;48.116;11.656;2023-07-13T15:14:23;29.30;50.20
41924;DHT22;27613;48.116;11.656;2023-07-13T15:16:53;27.80;51.80
41924;DHT22;27613;48.116;11.656;2023-07-13T15:19:19;26.70;53.20
41924;DHT22;27613;48.116;11.656;2023-07-13T15:21:47;27.90;52.70
41924;DHT22;27613;48.116;11.656;2023-07-13T15:24:13;28.80;50.10
41924;DHT22;27613;48.116;11.656;2023-07-13T15:26:39;29.50;50.20
41924;DHT22;27613;48.116;11.656;2023-07-13T15:29:04;30.10;50.30
41924;DHT22;27613;48.116;11.656;2023-07-13T15:31:32;29.80;49.00
41924;DHT22;27613;48.116;11.656;2023-07-13T15:33:59;29.60;49.70
41924;DHT22;27613;48.116;11.656;2023-07-13T15:36:26;30.40;48.90
41924;DHT22;27613;48.116;11.656;2023-07-13T15:38:54;30.50;49.30
41924;DHT22;27613;48.116;11.656;2023-07-13T15:41:21;30.80;48.20
41924;DHT22;27613;48.116;11.656;2023-07-13T15:43:51;31.10;47.30
41924;DHT22;27613;48.116;11.656;2023-07-13T15:46:19;31.30;47.00
41924;DHT22;27613;48.116;11.656;2023-07-13T15:48:45;31.10;47.70
41924;DHT22;27613;48.116;11.656;2023-07-13T15:51:23;30.70;48.20
41924;DHT22;27613;48.116;11.656;2023-07-13T15:53:49;30.10;49.90
41924;DHT22;27613;48.116;11.656;2023-07-13T15:58:45;31.00;47.30